sensor_id;sensor_type;location;lat;lon;timestamp;P1;durP1;ratioP1;P2;durP2;ratioP2
17763;SDS011;22245;52.832;13.816;2022-08-21T00:02:44;12.48;;;10.65;;
17763;SDS011;22245;52.832;13.816;2022-08-21T00:06:07;13.18;;;11.00;;
17763;SDS011;22245;52.832;13.816;2022-08-21T00:09:33;14.18;;;10.77;;
17763;SDS011;22245;52.832;13.816;2022-08-21T00:12:56;12.57;;;10.57;;
17763;SDS011;22245;52.832;13.816;2022-08-21T00:16:18;13.23;;;11.32;;
17763;SDS011;22245;52.832;13.816;2022-08-21T00:19:40;13.93;;;10.80;;
17763;SDS011;22245;52.832;13.816;2022-08-21T00:23:02;18.85;;;11.52;;
17763;SDS011;22245;52.832;13.816;2022-08-21T00:26:24;16.55;;;11.13;;
17763;SDS011;22245;52.832;13.816;2022-08-21T00:29:47;13.60;;;11.30;;
17763;SDS011;22245;52.832;13.816;2022-08-21T00:33:09;12.68;;;11.05;;
17763;SDS011;22245;52.832;13.816;2022-08-21T00:36:32;12.32;;;9.93;;
17763;SDS011;22245;52.832;13.816;2022-08-21T00:39:54;13.05;;;10.18;;
17763;SDS011;22245;52.832;13.816;2022-08-21T00:43:17;9.55;;;8.43;;
17763;SDS011;22245;52.832;13.816;2022-08-21T00:46:43;11.65;;;9.25;;
17763;SDS011;22245;52.832;13.816;2022-08-21T00:50:12;10.20;;;9.10;;
17763;SDS011;22245;52.832;13.816;2022-08-21T00:53:42;10.48;;;8.13;;
17763;SDS011;22245;52.832;13.816;2022-08-21T00:57:13;10.50;;;7.65;;
17763;SDS011;22245;52.832;13.816;2022-08-21T01:00:45;10.57;;;7.75;;
17763;SDS011;22245;52.832;13.816;2022-08-21T01:04:10;10.75;;;7.28;;
17763;SDS011;22245;52.832;13.816;2022-08-21T01:07:32;8.85;;;7.38;;
17763;SDS011;22245;52.832;13.816;2022-08-21T01:10:54;10.15;;;7.70;;
17763;SDS011;22245;52.832;13.816;2022-08-21T01:14:20;9.02;;;6.47;;
17763;SDS011;22245;52.832;13.816;2022-08-21T01:17:43;11.63;;;7.35;;
17763;SDS011;22245;52.832;13.816;2022-08-21T01:21:07;11.32;;;6.95;;
17763;SDS011;22245;52.832;13.816;2022-08-21T01:24:33;9.43;;;7.10;;
17763;SDS011;22245;52.832;13.816;2022-08-21T01:27:55;12.52;;;8.00;;
17763;SDS011;22245;52.832;13.816;2022-08-21T01:31:19;12.07;;;6.35;;
17763;SDS011;22245;52.832;13.816;2022-08-21T01:34:45;8.38;;;6.80;;
17763;SDS011;22245;52.832;13.816;2022-08-21T01:38:10;10.75;;;7.25;;
17763;SDS011;22245;52.832;13.816;2022-08-21T01:41:32;10.20;;;7.15;;
17763;SDS011;22245;52.832;13.816;2022-08-21T01:44:54;10.30;;;7.22;;
17763;SDS011;22245;52.832;13.816;2022-08-21T01:48:16;11.82;;;7.07;;
17763;SDS011;22245;52.832;13.816;2022-08-21T01:51:39;8.02;;;6.60;;
17763;SDS011;22245;52.832;13.816;2022-08-21T01:55:02;9.10;;;6.60;;
17763;SDS011;22245;52.832;13.816;2022-08-21T01:58:24;11.98;;;6.80;;
17763;SDS011;22245;52.832;13.816;2022-08-21T02:01:46;17.27;;;6.72;;
17763;SDS011;22245;52.832;13.816;2022-08-21T02:05:09;10.30;;;6.50;;
17763;SDS011;22245;52.832;13.816;2022-08-21T02:08:32;11.88;;;6.13;;
17763;SDS011;22245;52.832;13.816;2022-08-21T02:11:55;6.95;;;6.22;;
17763;SDS011;22245;52.832;13.816;2022-08-21T02:15:18;9.63;;;5.97;;
17763;SDS011;22245;52.832;13.816;2022-08-21T02:18:40;9.23;;;6.55;;
17763;SDS011;22245;52.832;13.816;2022-08-21T02:22:02;10.38;;;6.07;;
17763;SDS011;22245;52.832;13.816;2022-08-21T02:25:25;9.45;;;6.20;;
17763;SDS011;22245;52.832;13.816;2022-08-21T02:28:49;6.40;;;5.75;;
17763;SDS011;22245;52.832;13.816;2022-08-21T02:32:11;8.52;;;5.80;;
17763;SDS011;22245;52.832;13.816;2022-08-21T02:35:35;8.40;;;5.75;;
17763;SDS011;22245;52.832;13.816;2022-08-21T02:38:58;6.70;;;5.88;;
17763;SDS011;22245;52.832;13.816;2022-08-21T02:42:20;9.55;;;5.63;;
17763;SDS011;22245;52.832;13.816;2022-08-21T02:45:44;7.30;;;5.70;;
17763;SDS011;22245;52.832;13.816;2022-08-21T02:49:06;10.05;;;5.65;;
17763;SDS011;22245;52.832;13.816;2022-08-21T02:52:28;5.78;;;5.03;;
17763;SDS011;22245;52.832;13.816;2022-08-21T02:55:51;7.90;;;4.93;;
17763;SDS011;22245;52.832;13.816;2022-08-21T02:59:13;5.00;;;4.47;;
17763;SDS011;22245;52.832;13.816;2022-08-21T03:02:37;6.63;;;4.55;;
17763;SDS011;22245;52.832;13.816;2022-08-21T03:05:59;7.53;;;5.60;;
17763;SDS011;22245;52.832;13.816;2022-08-21T03:09:21;7.60;;;4.90;;
17763;SDS011;22245;52.832;13.816;2022-08-21T03:12:42;10.55;;;5.43;;
17763;SDS011;22245;52.832;13.816;2022-08-21T03:16:05;7.65;;;4.65;;
17763;SDS011;22245;52.832;13.816;2022-08-21T03:19:30;8.05;;;5.10;;
17763;SDS011;22245;52.832;13.816;2022-08-21T03:22:52;9.40;;;4.80;;
17763;SDS011;22245;52.832;13.816;2022-08-21T03:26:14;8.95;;;4.32;;
17763;SDS011;22245;52.832;13.816;2022-08-21T03:29:38;5.68;;;4.60;;
17763;SDS011;22245;52.832;13.816;2022-08-21T03:33:01;7.70;;;4.75;;
17763;SDS011;22245;52.832;13.816;2022-08-21T03:36:24;6.63;;;4.68;;
17763;SDS011;22245;52.832;13.816;2022-08-21T03:39:46;4.93;;;4.13;;
17763;SDS011;22245;52.832;13.816;2022-08-21T03:43:08;9.20;;;4.75;;
17763;SDS011;22245;52.832;13.816;2022-08-21T03:46:29;5.95;;;4.00;;
17763;SDS011;22245;52.832;13.816;2022-08-21T03:49:52;8.98;;;4.03;;
17763;SDS011;22245;52.832;13.816;2022-08-21T03:53:15;5.80;;;3.90;;
17763;SDS011;22245;52.832;13.816;2022-08-21T03:56:38;10.13;;;4.22;;
17763;SDS011;22245;52.832;13.816;2022-08-21T04:00:00;6.60;;;3.88;;
17763;SDS011;22245;52.832;13.816;2022-08-21T04:03:24;6.53;;;4.00;;
17763;SDS011;22245;52.832;13.816;2022-08-21T04:06:46;6.53;;;4.43;;
17763;SDS011;22245;52.832;13.816;2022-08-21T04:10:11;5.45;;;3.85;;
17763;SDS011;22245;52.832;13.816;2022-08-21T04:13:32;8.15;;;4.70;;
17763;SDS011;22245;52.832;13.816;2022-08-21T04:17:03;7.07;;;4.22;;
17763;SDS011;22245;52.832;13.816;2022-08-21T04:20:25;10.35;;;4.45;;
17763;SDS011;22245;52.832;13.816;2022-08-21T04:23:48;7.10;;;4.20;;
17763;SDS011;22245;52.832;13.816;2022-08-21T04:27:11;8.15;;;4.45;;
17763;SDS011;22245;52.832;13.816;2022-08-21T04:30:33;6.82;;;4.57;;
17763;SDS011;22245;52.832;13.816;2022-08-21T04:33:55;6.75;;;4.57;;
17763;SDS011;22245;52.832;13.816;2022-08-21T04:37:18;6.20;;;4.32;;
17763;SDS011;22245;52.832;13.816;2022-08-21T04:40:40;10.50;;;5.28;;
17763;SDS011;22245;52.832;13.816;2022-08-21T04:44:03;8.38;;;4.43;;
17763;SDS011;22245;52.832;13.816;2022-08-21T04:47:26;7.90;;;4.45;;
17763;SDS011;22245;52.832;13.816;2022-08-21T04:51:09;7.35;;;4.03;;
17763;SDS011;22245;52.832;13.816;2022-08-21T04:54:34;6.60;;;4.30;;
17763;SDS011;22245;52.832;13.816;2022-08-21T04:57:57;7.03;;;4.38;;
17763;SDS011;22245;52.832;13.816;2022-08-21T05:01:22;10.13;;;4.65;;
17763;SDS011;22245;52.832;13.816;2022-08-21T05:04:47;8.40;;;4.47;;
17763;SDS011;22245;52.832;13.816;2022-08-21T05:08:12;7.80;;;4.28;;
17763;SDS011;22245;52.832;13.816;2022-08-21T05:11:38;10.60;;;4.65;;
17763;SDS011;22245;52.832;13.816;2022-08-21T05:15:00;9.30;;;4.97;;
17763;SDS011;22245;52.832;13.816;2022-08-21T05:18:24;8.73;;;4.80;;
17763;SDS011;22245;52.832;13.816;2022-08-21T05:21:46;8.50;;;5.00;;
17763;SDS011;22245;52.832;13.816;2022-08-21T05:25:09;7.32;;;4.20;;
17763;SDS011;22245;52.832;13.816;2022-08-21T05:28:31;7.47;;;4.43;;
17763;SDS011;22245;52.832;13.816;2022-08-21T05:31:53;7.32;;;4.78;;
17763;SDS011;22245;52.832;13.816;2022-08-21T05:35:17;8.35;;;4.30;;
17763;SDS011;22245;52.832;13.816;2022-08-21T05:38:39;7.20;;;4.30;;
17763;SDS011;22245;52.832;13.816;2022-08-21T05:42:01;9.63;;;4.35;;
17763;SDS011;22245;52.832;13.816;2022-08-21T05:45:23;10.13;;;4.07;;
17763;SDS011;22245;52.832;13.816;2022-08-21T05:49:03;6.38;;;4.18;;
17763;SDS011;22245;52.832;13.816;2022-08-21T05:52:26;7.15;;;3.85;;
17763;SDS011;22245;52.832;13.816;2022-08-21T05:55:48;6.85;;;3.80;;
17763;SDS011;22245;52.832;13.816;2022-08-21T05:59:10;8.23;;;4.18;;
17763;SDS011;22245;52.832;13.816;2022-08-21T06:02:33;8.98;;;4.05;;
17763;SDS011;22245;52.832;13.816;2022-08-21T06:05:55;7.10;;;3.90;;
17763;SDS011;22245;52.832;13.816;2022-08-21T06:09:19;9.32;;;3.95;;
17763;SDS011;22245;52.832;13.816;2022-08-21T06:12:41;8.52;;;3.30;;
17763;SDS011;22245;52.832;13.816;2022-08-21T06:16:05;6.05;;;3.33;;
17763;SDS011;22245;52.832;13.816;2022-08-21T06:19:29;5.63;;;3.10;;
17763;SDS011;22245;52.832;13.816;2022-08-21T06:22:51;5.38;;;3.30;;
17763;SDS011;22245;52.832;13.816;2022-08-21T06:26:15;6.00;;;3.15;;
17763;SDS011;22245;52.832;13.816;2022-08-21T06:29:37;5.28;;;2.83;;
17763;SDS011;22245;52.832;13.816;2022-08-21T06:33:04;8.85;;;3.13;;
17763;SDS011;22245;52.832;13.816;2022-08-21T06:36:27;7.80;;;3.53;;
17763;SDS011;22245;52.832;13.816;2022-08-21T06:39:49;7.75;;;3.60;;
17763;SDS011;22245;52.832;13.816;2022-08-21T06:43:13;5.53;;;2.78;;
17763;SDS011;22245;52.832;13.816;2022-08-21T06:46:37;8.32;;;3.25;;
17763;SDS011;22245;52.832;13.816;2022-08-21T06:49:59;8.32;;;3.20;;
17763;SDS011;22245;52.832;13.816;2022-08-21T06:53:21;7.07;;;2.85;;
17763;SDS011;22245;52.832;13.816;2022-08-21T06:56:43;9.02;;;3.17;;
17763;SDS011;22245;52.832;13.816;2022-08-21T07:00:07;7.60;;;2.90;;
17763;SDS011;22245;52.832;13.816;2022-08-21T07:03:31;11.25;;;2.90;;
17763;SDS011;22245;52.832;13.816;2022-08-21T07:06:54;7.45;;;2.75;;
17763;SDS011;22245;52.832;13.816;2022-08-21T07:10:16;8.68;;;3.03;;
17763;SDS011;22245;52.832;13.816;2022-08-21T07:13:42;8.40;;;2.92;;
17763;SDS011;22245;52.832;13.816;2022-08-21T07:17:05;8.23;;;3.47;;
17763;SDS011;22245;52.832;13.816;2022-08-21T07:20:27;5.35;;;2.88;;
17763;SDS011;22245;52.832;13.816;2022-08-21T07:23:51;6.90;;;2.63;;
17763;SDS011;22245;52.832;13.816;2022-08-21T07:27:13;7.05;;;2.90;;
17763;SDS011;22245;52.832;13.816;2022-08-21T07:30:35;12.60;;;3.20;;
17763;SDS011;22245;52.832;13.816;2022-08-21T07:33:59;8.57;;;3.10;;
17763;SDS011;22245;52.832;13.816;2022-08-21T07:37:20;5.80;;;2.90;;
17763;SDS011;22245;52.832;13.816;2022-08-21T07:40:42;6.45;;;2.80;;
17763;SDS011;22245;52.832;13.816;2022-08-21T07:44:04;6.30;;;2.85;;
17763;SDS011;22245;52.832;13.816;2022-08-21T07:47:26;6.43;;;2.72;;
17763;SDS011;22245;52.832;13.816;2022-08-21T07:51:05;8.73;;;2.80;;
17763;SDS011;22245;52.832;13.816;2022-08-21T07:54:28;5.75;;;2.97;;
17763;SDS011;22245;52.832;13.816;2022-08-21T07:57:52;5.82;;;2.40;;
17763;SDS011;22245;52.832;13.816;2022-08-21T08:01:14;6.63;;;3.03;;
17763;SDS011;22245;52.832;13.816;2022-08-21T08:04:36;8.77;;;2.97;;
17763;SDS011;22245;52.832;13.816;2022-08-21T08:08:11;7.78;;;2.83;;
17763;SDS011;22245;52.832;13.816;2022-08-21T08:11:33;4.57;;;2.45;;
17763;SDS011;22245;52.832;13.816;2022-08-21T08:14:55;5.03;;;2.00;;
17763;SDS011;22245;52.832;13.816;2022-08-21T08:18:17;7.88;;;2.83;;
17763;SDS011;22245;52.832;13.816;2022-08-21T08:21:39;4.97;;;2.50;;
17763;SDS011;22245;52.832;13.816;2022-08-21T08:25:04;6.93;;;2.55;;
17763;SDS011;22245;52.832;13.816;2022-08-21T08:28:29;5.30;;;2.22;;
17763;SDS011;22245;52.832;13.816;2022-08-21T08:31:52;7.75;;;2.80;;
17763;SDS011;22245;52.832;13.816;2022-08-21T08:35:14;8.43;;;2.17;;
17763;SDS011;22245;52.832;13.816;2022-08-21T08:38:36;7.97;;;2.70;;
17763;SDS011;22245;52.832;13.816;2022-08-21T08:42:03;8.55;;;2.47;;
17763;SDS011;22245;52.832;13.816;2022-08-21T08:45:50;5.97;;;2.30;;
17763;SDS011;22245;52.832;13.816;2022-08-21T08:49:15;6.40;;;2.47;;
17763;SDS011;22245;52.832;13.816;2022-08-21T08:52:43;4.78;;;1.98;;
17763;SDS011;22245;52.832;13.816;2022-08-21T08:56:08;5.28;;;2.33;;
17763;SDS011;22245;52.832;13.816;2022-08-21T08:59:34;8.00;;;2.08;;
17763;SDS011;22245;52.832;13.816;2022-08-21T09:03:03;6.10;;;2.35;;
17763;SDS011;22245;52.832;13.816;2022-08-21T09:06:28;7.28;;;1.90;;
17763;SDS011;22245;52.832;13.816;2022-08-21T09:10:03;5.45;;;1.92;;
17763;SDS011;22245;52.832;13.816;2022-08-21T09:13:34;4.50;;;2.25;;
17763;SDS011;22245;52.832;13.816;2022-08-21T09:17:09;7.22;;;1.90;;
17763;SDS011;22245;52.832;13.816;2022-08-21T09:20:41;5.65;;;2.20;;
17763;SDS011;22245;52.832;13.816;2022-08-21T09:24:17;3.47;;;1.95;;
17763;SDS011;22245;52.832;13.816;2022-08-21T09:27:45;5.05;;;2.00;;
17763;SDS011;22245;52.832;13.816;2022-08-21T09:31:08;4.55;;;2.03;;
17763;SDS011;22245;52.832;13.816;2022-08-21T09:34:35;5.40;;;1.90;;
17763;SDS011;22245;52.832;13.816;2022-08-21T09:37:58;6.25;;;2.08;;
17763;SDS011;22245;52.832;13.816;2022-08-21T09:41:26;5.72;;;2.30;;
17763;SDS011;22245;52.832;13.816;2022-08-21T09:45:00;6.85;;;2.33;;
17763;SDS011;22245;52.832;13.816;2022-08-21T09:48:29;3.50;;;1.85;;
17763;SDS011;22245;52.832;13.816;2022-08-21T09:51:53;6.65;;;2.00;;
17763;SDS011;22245;52.832;13.816;2022-08-21T09:55:18;6.47;;;2.25;;
17763;SDS011;22245;52.832;13.816;2022-08-21T09:59:12;4.70;;;2.00;;
17763;SDS011;22245;52.832;13.816;2022-08-21T10:02:36;5.47;;;2.08;;
17763;SDS011;22245;52.832;13.816;2022-08-21T10:05:59;6.85;;;2.40;;
17763;SDS011;22245;52.832;13.816;2022-08-21T10:09:29;5.30;;;2.10;;
17763;SDS011;22245;52.832;13.816;2022-08-21T10:12:53;4.50;;;2.17;;
17763;SDS011;22245;52.832;13.816;2022-08-21T10:16:29;4.65;;;2.17;;
17763;SDS011;22245;52.832;13.816;2022-08-21T10:20:03;6.68;;;2.33;;
17763;SDS011;22245;52.832;13.816;2022-08-21T10:23:33;4.00;;;1.95;;
17763;SDS011;22245;52.832;13.816;2022-08-21T10:27:06;8.40;;;2.20;;
17763;SDS011;22245;52.832;13.816;2022-08-21T10:30:38;5.65;;;2.28;;
17763;SDS011;22245;52.832;13.816;2022-08-21T10:34:11;5.63;;;2.20;;
17763;SDS011;22245;52.832;13.816;2022-08-21T10:37:48;6.68;;;2.13;;
17763;SDS011;22245;52.832;13.816;2022-08-21T10:41:21;5.13;;;2.20;;
17763;SDS011;22245;52.832;13.816;2022-08-21T10:44:56;6.85;;;2.05;;
17763;SDS011;22245;52.832;13.816;2022-08-21T10:48:29;5.72;;;2.08;;
17763;SDS011;22245;52.832;13.816;2022-08-21T10:52:02;4.50;;;2.35;;
17763;SDS011;22245;52.832;13.816;2022-08-21T10:55:48;4.68;;;2.22;;
17763;SDS011;22245;52.832;13.816;2022-08-21T10:59:22;4.30;;;1.85;;
17763;SDS011;22245;52.832;13.816;2022-08-21T11:02:50;4.97;;;2.03;;
17763;SDS011;22245;52.832;13.816;2022-08-21T11:06:18;4.32;;;2.20;;
17763;SDS011;22245;52.832;13.816;2022-08-21T11:09:43;4.57;;;2.25;;
17763;SDS011;22245;52.832;13.816;2022-08-21T11:13:11;3.78;;;2.10;;
17763;SDS011;22245;52.832;13.816;2022-08-21T11:16:40;4.57;;;2.00;;
17763;SDS011;22245;52.832;13.816;2022-08-21T11:20:10;2.90;;;1.85;;
17763;SDS011;22245;52.832;13.816;2022-08-21T11:23:38;4.43;;;2.10;;
17763;SDS011;22245;52.832;13.816;2022-08-21T11:27:06;6.65;;;2.20;;
17763;SDS011;22245;52.832;13.816;2022-08-21T11:30:39;4.25;;;1.98;;
17763;SDS011;22245;52.832;13.816;2022-08-21T11:34:12;5.28;;;2.05;;
17763;SDS011;22245;52.832;13.816;2022-08-21T11:37:49;3.60;;;1.80;;
17763;SDS011;22245;52.832;13.816;2022-08-21T11:41:23;3.88;;;1.83;;
17763;SDS011;22245;52.832;13.816;2022-08-21T11:44:53;4.43;;;2.25;;
17763;SDS011;22245;52.832;13.816;2022-08-21T11:48:27;5.45;;;2.13;;
17763;SDS011;22245;52.832;13.816;2022-08-21T11:52:01;5.00;;;2.00;;
17763;SDS011;22245;52.832;13.816;2022-08-21T11:55:32;3.03;;;1.90;;
17763;SDS011;22245;52.832;13.816;2022-08-21T11:59:02;4.68;;;2.03;;
17763;SDS011;22245;52.832;13.816;2022-08-21T12:02:31;4.85;;;2.10;;
17763;SDS011;22245;52.832;13.816;2022-08-21T12:05:56;3.35;;;1.90;;
17763;SDS011;22245;52.832;13.816;2022-08-21T12:09:30;3.28;;;2.00;;
17763;SDS011;22245;52.832;13.816;2022-08-21T12:13:05;8.15;;;2.13;;
17763;SDS011;22245;52.832;13.816;2022-08-21T12:16:33;4.32;;;1.60;;
17763;SDS011;22245;52.832;13.816;2022-08-21T12:19:59;3.03;;;1.73;;
17763;SDS011;22245;52.832;13.816;2022-08-21T12:23:27;4.72;;;1.52;;
17763;SDS011;22245;52.832;13.816;2022-08-21T12:26:51;5.22;;;1.80;;
17763;SDS011;22245;52.832;13.816;2022-08-21T12:30:22;5.80;;;2.20;;
17763;SDS011;22245;52.832;13.816;2022-08-21T12:33:54;5.25;;;1.90;;
17763;SDS011;22245;52.832;13.816;2022-08-21T12:37:20;3.95;;;1.58;;
17763;SDS011;22245;52.832;13.816;2022-08-21T12:40:50;4.20;;;1.80;;
17763;SDS011;22245;52.832;13.816;2022-08-21T12:44:15;4.38;;;2.10;;
17763;SDS011;22245;52.832;13.816;2022-08-21T12:47:45;7.68;;;2.08;;
17763;SDS011;22245;52.832;13.816;2022-08-21T12:51:11;3.72;;;1.70;;
17763;SDS011;22245;52.832;13.816;2022-08-21T12:54:37;5.43;;;1.80;;
17763;SDS011;22245;52.832;13.816;2022-08-21T12:58:02;2.75;;;1.70;;
17763;SDS011;22245;52.832;13.816;2022-08-21T13:01:27;4.53;;;1.80;;
17763;SDS011;22245;52.832;13.816;2022-08-21T13:05:02;3.47;;;1.77;;
17763;SDS011;22245;52.832;13.816;2022-08-21T13:08:35;4.60;;;2.45;;
17763;SDS011;22245;52.832;13.816;2022-08-21T13:12:06;4.82;;;2.10;;
17763;SDS011;22245;52.832;13.816;2022-08-21T13:15:30;3.45;;;1.77;;
17763;SDS011;22245;52.832;13.816;2022-08-21T13:18:55;2.83;;;1.70;;
17763;SDS011;22245;52.832;13.816;2022-08-21T13:22:20;5.00;;;1.80;;
17763;SDS011;22245;52.832;13.816;2022-08-21T13:25:53;3.28;;;1.88;;
17763;SDS011;22245;52.832;13.816;2022-08-21T13:29:17;3.70;;;2.00;;
17763;SDS011;22245;52.832;13.816;2022-08-21T13:32:43;5.50;;;1.88;;
17763;SDS011;22245;52.832;13.816;2022-08-21T13:36:09;4.32;;;1.88;;
17763;SDS011;22245;52.832;13.816;2022-08-21T13:39:34;5.75;;;2.25;;
17763;SDS011;22245;52.832;13.816;2022-08-21T13:42:57;3.25;;;2.08;;
17763;SDS011;22245;52.832;13.816;2022-08-21T13:46:21;4.13;;;1.85;;
17763;SDS011;22245;52.832;13.816;2022-08-21T13:49:46;2.78;;;1.63;;
17763;SDS011;22245;52.832;13.816;2022-08-21T13:53:20;4.43;;;1.83;;
17763;SDS011;22245;52.832;13.816;2022-08-21T13:56:45;5.60;;;1.90;;
17763;SDS011;22245;52.832;13.816;2022-08-21T14:00:12;3.80;;;2.15;;
17763;SDS011;22245;52.832;13.816;2022-08-21T14:03:38;4.03;;;1.98;;
17763;SDS011;22245;52.832;13.816;2022-08-21T14:07:14;5.13;;;2.08;;
17763;SDS011;22245;52.832;13.816;2022-08-21T14:10:41;5.45;;;2.33;;
17763;SDS011;22245;52.832;13.816;2022-08-21T14:14:12;2.95;;;1.80;;
17763;SDS011;22245;52.832;13.816;2022-08-21T14:17:41;3.65;;;1.85;;
17763;SDS011;22245;52.832;13.816;2022-08-21T14:21:04;3.70;;;2.00;;
17763;SDS011;22245;52.832;13.816;2022-08-21T14:24:28;4.90;;;1.60;;
17763;SDS011;22245;52.832;13.816;2022-08-21T14:27:56;2.03;;;1.20;;
17763;SDS011;22245;52.832;13.816;2022-08-21T14:31:30;2.28;;;1.70;;
17763;SDS011;22245;52.832;13.816;2022-08-21T14:35:00;3.83;;;1.60;;
17763;SDS011;22245;52.832;13.816;2022-08-21T14:38:23;3.72;;;1.30;;
17763;SDS011;22245;52.832;13.816;2022-08-21T14:41:48;3.38;;;1.45;;
17763;SDS011;22245;52.832;13.816;2022-08-21T14:45:13;1.95;;;1.30;;
17763;SDS011;22245;52.832;13.816;2022-08-21T14:48:41;2.92;;;1.42;;
17763;SDS011;22245;52.832;13.816;2022-08-21T14:52:03;2.17;;;1.15;;
17763;SDS011;22245;52.832;13.816;2022-08-21T14:55:25;2.35;;;1.25;;
17763;SDS011;22245;52.832;13.816;2022-08-21T14:58:48;3.83;;;1.60;;
17763;SDS011;22245;52.832;13.816;2022-08-21T15:02:12;2.08;;;1.10;;
17763;SDS011;22245;52.832;13.816;2022-08-21T15:05:35;2.10;;;1.10;;
17763;SDS011;22245;52.832;13.816;2022-08-21T15:08:57;2.95;;;1.42;;
17763;SDS011;22245;52.832;13.816;2022-08-21T15:12:18;2.33;;;1.13;;
17763;SDS011;22245;52.832;13.816;2022-08-21T15:15:41;2.85;;;1.30;;
17763;SDS011;22245;52.832;13.816;2022-08-21T15:19:05;2.80;;;1.20;;
17763;SDS011;22245;52.832;13.816;2022-08-21T15:22:29;4.45;;;1.50;;
17763;SDS011;22245;52.832;13.816;2022-08-21T15:25:52;5.07;;;1.23;;
17763;SDS011;22245;52.832;13.816;2022-08-21T15:29:18;2.65;;;1.50;;
17763;SDS011;22245;52.832;13.816;2022-08-21T15:32:42;3.50;;;1.35;;
17763;SDS011;22245;52.832;13.816;2022-08-21T15:36:04;2.75;;;1.35;;
17763;SDS011;22245;52.832;13.816;2022-08-21T15:39:27;2.40;;;1.25;;
17763;SDS011;22245;52.832;13.816;2022-08-21T15:42:57;2.47;;;1.40;;
17763;SDS011;22245;52.832;13.816;2022-08-21T15:46:21;4.68;;;1.33;;
17763;SDS011;22245;52.832;13.816;2022-08-21T15:49:43;2.63;;;1.25;;
17763;SDS011;22245;52.832;13.816;2022-08-21T15:53:06;1.63;;;1.20;;
17763;SDS011;22245;52.832;13.816;2022-08-21T15:56:33;2.75;;;1.13;;
17763;SDS011;22245;52.832;13.816;2022-08-21T15:59:58;2.50;;;1.45;;
17763;SDS011;22245;52.832;13.816;2022-08-21T16:03:30;2.50;;;1.40;;
17763;SDS011;22245;52.832;13.816;2022-08-21T16:06:54;2.45;;;1.42;;
17763;SDS011;22245;52.832;13.816;2022-08-21T16:10:24;3.40;;;1.42;;
17763;SDS011;22245;52.832;13.816;2022-08-21T16:13:50;2.80;;;1.67;;
17763;SDS011;22245;52.832;13.816;2022-08-21T16:17:15;3.45;;;1.80;;
17763;SDS011;22245;52.832;13.816;2022-08-21T16:20:37;3.83;;;1.67;;
17763;SDS011;22245;52.832;13.816;2022-08-21T16:23:59;4.82;;;1.63;;
17763;SDS011;22245;52.832;13.816;2022-08-21T16:27:21;3.15;;;1.60;;
17763;SDS011;22245;52.832;13.816;2022-08-21T16:30:48;3.53;;;1.70;;
17763;SDS011;22245;52.832;13.816;2022-08-21T16:34:11;3.97;;;1.50;;
17763;SDS011;22245;52.832;13.816;2022-08-21T16:37:37;3.28;;;1.50;;
17763;SDS011;22245;52.832;13.816;2022-08-21T16:41:00;5.35;;;1.75;;
17763;SDS011;22245;52.832;13.816;2022-08-21T16:44:24;3.08;;;1.73;;
17763;SDS011;22245;52.832;13.816;2022-08-21T16:47:51;2.35;;;1.63;;
17763;SDS011;22245;52.832;13.816;2022-08-21T16:51:13;2.53;;;1.60;;
17763;SDS011;22245;52.832;13.816;2022-08-21T16:54:36;3.97;;;1.80;;
17763;SDS011;22245;52.832;13.816;2022-08-21T16:57:58;3.05;;;1.70;;
17763;SDS011;22245;52.832;13.816;2022-08-21T17:01:21;3.88;;;1.88;;
17763;SDS011;22245;52.832;13.816;2022-08-21T17:04:48;2.35;;;1.85;;
17763;SDS011;22245;52.832;13.816;2022-08-21T17:08:09;5.82;;;2.20;;
17763;SDS011;22245;52.832;13.816;2022-08-21T17:11:32;5.60;;;2.33;;
17763;SDS011;22245;52.832;13.816;2022-08-21T17:14:57;5.07;;;1.60;;
17763;SDS011;22245;52.832;13.816;2022-08-21T17:18:25;2.58;;;1.70;;
17763;SDS011;22245;52.832;13.816;2022-08-21T17:21:49;3.22;;;1.70;;
17763;SDS011;22245;52.832;13.816;2022-08-21T17:25:11;2.80;;;1.50;;
17763;SDS011;22245;52.832;13.816;2022-08-21T17:28:33;3.78;;;1.70;;
17763;SDS011;22245;52.832;13.816;2022-08-21T17:31:57;4.82;;;1.77;;
17763;SDS011;22245;52.832;13.816;2022-08-21T17:35:20;5.80;;;2.40;;
17763;SDS011;22245;52.832;13.816;2022-08-21T17:38:43;7.82;;;2.50;;
17763;SDS011;22245;52.832;13.816;2022-08-21T17:42:06;10.00;;;2.75;;
17763;SDS011;22245;52.832;13.816;2022-08-21T17:45:30;3.25;;;2.33;;
17763;SDS011;22245;52.832;13.816;2022-08-21T17:48:57;4.72;;;1.90;;
17763;SDS011;22245;52.832;13.816;2022-08-21T17:52:20;4.78;;;2.75;;
17763;SDS011;22245;52.832;13.816;2022-08-21T17:55:43;7.30;;;2.50;;
17763;SDS011;22245;52.832;13.816;2022-08-21T17:59:05;3.88;;;2.08;;
17763;SDS011;22245;52.832;13.816;2022-08-21T18:02:27;3.53;;;1.70;;
17763;SDS011;22245;52.832;13.816;2022-08-21T18:05:50;5.57;;;2.03;;
17763;SDS011;22245;52.832;13.816;2022-08-21T18:09:15;3.55;;;1.52;;
17763;SDS011;22245;52.832;13.816;2022-08-21T18:12:40;4.80;;;2.40;;
17763;SDS011;22245;52.832;13.816;2022-08-21T18:16:04;6.15;;;2.30;;
17763;SDS011;22245;52.832;13.816;2022-08-21T18:19:30;3.22;;;1.90;;
17763;SDS011;22245;52.832;13.816;2022-08-21T18:22:52;2.60;;;1.70;;
17763;SDS011;22245;52.832;13.816;2022-08-21T18:26:19;2.53;;;1.52;;
17763;SDS011;22245;52.832;13.816;2022-08-21T18:29:47;2.28;;;1.40;;
17763;SDS011;22245;52.832;13.816;2022-08-21T18:33:11;2.85;;;1.20;;
17763;SDS011;22245;52.832;13.816;2022-08-21T18:36:34;4.38;;;1.60;;
17763;SDS011;22245;52.832;13.816;2022-08-21T18:40:03;3.08;;;1.38;;
17763;SDS011;22245;52.832;13.816;2022-08-21T18:43:26;2.72;;;1.30;;
17763;SDS011;22245;52.832;13.816;2022-08-21T18:46:50;2.65;;;1.80;;
17763;SDS011;22245;52.832;13.816;2022-08-21T18:50:16;2.78;;;1.50;;
17763;SDS011;22245;52.832;13.816;2022-08-21T18:53:40;3.53;;;1.70;;
17763;SDS011;22245;52.832;13.816;2022-08-21T18:57:05;3.53;;;1.58;;
17763;SDS011;22245;52.832;13.816;2022-08-21T19:00:30;5.93;;;1.67;;
17763;SDS011;22245;52.832;13.816;2022-08-21T19:04:05;4.68;;;2.10;;
17763;SDS011;22245;52.832;13.816;2022-08-21T19:07:28;3.35;;;1.83;;
17763;SDS011;22245;52.832;13.816;2022-08-21T19:10:50;5.30;;;1.98;;
17763;SDS011;22245;52.832;13.816;2022-08-21T19:14:17;4.22;;;2.05;;
17763;SDS011;22245;52.832;13.816;2022-08-21T19:17:41;7.78;;;2.00;;
17763;SDS011;22245;52.832;13.816;2022-08-21T19:21:11;5.07;;;1.90;;
17763;SDS011;22245;52.832;13.816;2022-08-21T19:24:32;5.10;;;2.05;;
17763;SDS011;22245;52.832;13.816;2022-08-21T19:27:54;3.42;;;1.70;;
17763;SDS011;22245;52.832;13.816;2022-08-21T19:31:18;5.78;;;2.05;;
17763;SDS011;22245;52.832;13.816;2022-08-21T19:34:43;5.95;;;1.70;;
17763;SDS011;22245;52.832;13.816;2022-08-21T19:38:06;3.65;;;1.70;;
17763;SDS011;22245;52.832;13.816;2022-08-21T19:41:29;4.45;;;1.85;;
17763;SDS011;22245;52.832;13.816;2022-08-21T19:44:53;2.78;;;1.65;;
17763;SDS011;22245;52.832;13.816;2022-08-21T19:48:17;7.18;;;1.80;;
17763;SDS011;22245;52.832;13.816;2022-08-21T19:51:39;3.67;;;1.80;;
17763;SDS011;22245;52.832;13.816;2022-08-21T19:55:04;3.67;;;1.73;;
17763;SDS011;22245;52.832;13.816;2022-08-21T19:58:31;4.93;;;1.52;;
17763;SDS011;22245;52.832;13.816;2022-08-21T20:01:58;3.63;;;1.58;;
17763;SDS011;22245;52.832;13.816;2022-08-21T20:05:21;3.38;;;1.50;;
17763;SDS011;22245;52.832;13.816;2022-08-21T20:08:43;3.65;;;1.55;;
17763;SDS011;22245;52.832;13.816;2022-08-21T20:12:07;3.97;;;1.95;;
17763;SDS011;22245;52.832;13.816;2022-08-21T20:15:32;6.32;;;1.80;;
17763;SDS011;22245;52.832;13.816;2022-08-21T20:18:55;3.40;;;1.90;;